Manoel Vitorino, Brazil
Current Conditions -  °F | °C
As of 9:00 AM on Thursday 23 Oct 2014 (Local Time) from SBQV Reporting Station
Overcast Overcast  
Wind Chill: 64°   Ceiling: 800
Heat Index: 64°   Visibility: 6mi
Dew Point: 64°   Wind: 16mph
Humidity: 100%   Direction: 120°ESE
Pressure: 30.21"   Gusts: NA
Location:  14.15°S, 40.24°W
Report Text: SBQV 231200Z 12014KT 9999 OVC008 18/18 Q1023
Loading
Personal Weather Stations






























Interactive Weather Map
Tropical Storm Tracking
New forecast layout! Learn more

10-Day Weather Forecast

Advertisements
Track Severe Weather on mobile